createdAt,value
2018-08-09T00:00:02.288Z,25.90
2018-08-09T00:02:30.847Z,25.70
2018-08-09T00:04:59.189Z,25.70
2018-08-09T00:07:27.526Z,25.80
2018-08-09T00:09:55.915Z,25.90
2018-08-09T00:12:24.267Z,25.90
2018-08-09T00:14:52.588Z,26.00
2018-08-09T00:17:21.106Z,26.10
2018-08-09T00:19:49.544Z,26.10
2018-08-09T00:22:17.946Z,26.10
2018-08-09T00:24:46.571Z,26.10
2018-08-09T00:27:14.974Z,26.10
2018-08-09T00:29:43.359Z,26.10
2018-08-09T00:32:11.942Z,26.20
2018-08-09T00:34:40.338Z,26.30
2018-08-09T00:37:08.739Z,26.30
2018-08-09T00:39:37.298Z,26.10
2018-08-09T00:42:05.743Z,26.00
2018-08-09T00:44:34.137Z,26.00
2018-08-09T00:47:02.590Z,26.10
2018-08-09T00:49:30.973Z,26.10
2018-08-09T00:51:59.398Z,26.00
2018-08-09T00:54:27.798Z,26.00
2018-08-09T00:56:56.238Z,26.00
2018-08-09T00:59:24.669Z,26.00
2018-08-09T01:01:53.052Z,26.00
2018-08-09T01:04:21.654Z,25.90
2018-08-09T01:06:50.074Z,26.00
2018-08-09T01:09:18.467Z,25.90
2018-08-09T01:11:46.902Z,26.00
2018-08-09T01:14:15.332Z,26.00
2018-08-09T01:16:43.719Z,25.90
2018-08-09T01:19:12.158Z,25.80
2018-08-09T01:21:40.513Z,25.80
2018-08-09T01:24:08.914Z,25.90
2018-08-09T01:26:37.262Z,25.80
2018-08-09T01:29:05.689Z,25.80
2018-08-09T01:31:38.157Z,25.80
2018-08-09T01:34:08.789Z,25.70
2018-08-09T01:36:37.773Z,25.70
2018-08-09T01:39:08.433Z,25.70
2018-08-09T01:41:36.805Z,25.70
2018-08-09T01:44:06.300Z,25.70
2018-08-09T01:46:34.845Z,25.70
2018-08-09T01:49:03.233Z,25.70
2018-08-09T01:51:31.890Z,25.70
2018-08-09T01:54:00.280Z,25.80
2018-08-09T01:56:28.620Z,25.70
2018-08-09T01:58:56.993Z,25.60
2018-08-09T02:01:25.342Z,25.50
2018-08-09T02:03:53.741Z,25.60
2018-08-09T02:06:22.140Z,25.60
2018-08-09T02:08:50.476Z,25.50
2018-08-09T02:11:18.845Z,25.50
2018-08-09T02:13:47.182Z,25.40
2018-08-09T02:16:15.520Z,25.40
2018-08-09T02:18:43.873Z,25.40
2018-08-09T02:21:12.224Z,25.40
2018-08-09T02:23:40.761Z,25.40
2018-08-09T02:26:09.157Z,25.40
2018-08-09T02:28:37.499Z,25.30
2018-08-09T02:31:05.868Z,25.20
2018-08-09T02:33:34.238Z,25.10
2018-08-09T02:36:02.630Z,25.10
2018-08-09T02:38:30.978Z,25.00
2018-08-09T02:40:59.304Z,25.10
2018-08-09T02:43:27.681Z,25.10
2018-08-09T02:45:56.025Z,25.10
2018-08-09T02:48:24.475Z,25.10
2018-08-09T02:50:52.825Z,25.10
2018-08-09T02:53:21.189Z,25.00
2018-08-09T02:55:49.538Z,24.90
2018-08-09T02:58:17.874Z,24.70
2018-08-09T03:00:46.217Z,24.70
2018-08-09T03:03:14.569Z,24.90
2018-08-09T03:05:42.908Z,24.90
2018-08-09T03:08:11.293Z,24.90
2018-08-09T03:10:39.660Z,25.10
2018-08-09T03:13:08.047Z,25.10
2018-08-09T03:15:36.446Z,25.00
2018-08-09T03:18:04.785Z,24.90
2018-08-09T03:20:33.397Z,24.80
2018-08-09T03:23:01.749Z,25.00
2018-08-09T03:25:30.108Z,25.00
2018-08-09T03:27:58.497Z,25.00
2018-08-09T03:30:26.849Z,24.80
2018-08-09T03:32:55.218Z,24.70
2018-08-09T03:35:23.561Z,24.80
2018-08-09T03:37:51.921Z,24.80
2018-08-09T03:40:20.272Z,24.80
2018-08-09T03:42:48.774Z,24.70
2018-08-09T03:45:17.120Z,24.70
2018-08-09T03:47:45.472Z,24.60
2018-08-09T03:50:13.837Z,24.50
2018-08-09T03:52:42.187Z,24.70
2018-08-09T03:55:10.594Z,24.70
2018-08-09T03:57:38.941Z,24.80
2018-08-09T04:00:08.036Z,24.80
2018-08-09T04:02:36.420Z,24.80
2018-08-09T04:05:05.584Z,24.70
2018-08-09T04:07:34.013Z,24.70
2018-08-09T04:10:02.417Z,24.80
2018-08-09T04:12:30.821Z,24.70
2018-08-09T04:14:59.300Z,24.70
2018-08-09T04:17:27.643Z,24.70
2018-08-09T04:19:56.020Z,24.80
2018-08-09T04:22:24.377Z,24.80
2018-08-09T04:24:52.886Z,24.70
2018-08-09T04:27:21.221Z,24.80
2018-08-09T04:29:49.596Z,24.90
2018-08-09T04:32:17.963Z,24.90
2018-08-09T04:34:46.316Z,24.80
2018-08-09T04:37:14.667Z,24.80
2018-08-09T04:39:43.052Z,24.90
2018-08-09T04:42:11.437Z,24.90
2018-08-09T04:44:39.845Z,24.90
2018-08-09T04:47:08.220Z,24.80
2018-08-09T04:49:36.581Z,24.70
2018-08-09T04:52:04.993Z,24.70
2018-08-09T04:54:33.372Z,24.70
2018-08-09T04:57:01.742Z,24.70
2018-08-09T04:59:30.128Z,24.60
2018-08-09T05:01:58.560Z,24.60
2018-08-09T05:04:26.941Z,24.50
2018-08-09T05:06:55.331Z,24.50
2018-08-09T05:09:23.713Z,24.60
2018-08-09T05:11:52.216Z,24.60
2018-08-09T05:14:20.567Z,24.80
2018-08-09T05:16:48.918Z,24.80
2018-08-09T05:19:17.284Z,24.90
2018-08-09T05:21:45.653Z,24.80
2018-08-09T05:24:14.038Z,24.80
2018-08-09T05:26:42.407Z,24.70
2018-08-09T05:29:10.756Z,24.80
2018-08-09T05:31:39.120Z,24.70
2018-08-09T05:34:07.529Z,24.90
2018-08-09T05:36:35.832Z,24.80
2018-08-09T05:39:06.488Z,24.60
2018-08-09T05:41:34.818Z,24.70
2018-08-09T05:44:03.317Z,24.80
2018-08-09T05:46:31.645Z,24.80
2018-08-09T05:48:59.964Z,24.80
2018-08-09T05:51:28.305Z,24.90
2018-08-09T05:53:56.668Z,24.90
2018-08-09T05:56:25.025Z,24.90
2018-08-09T05:58:53.418Z,24.80
2018-08-09T06:01:21.744Z,24.80
2018-08-09T06:03:50.221Z,25.00
2018-08-09T06:06:18.563Z,25.00
2018-08-09T06:08:46.889Z,24.90
2018-08-09T06:11:15.253Z,25.10
2018-08-09T06:13:43.581Z,25.30
2018-08-09T06:16:11.997Z,25.20
2018-08-09T06:18:40.333Z,25.20
2018-08-09T06:21:08.693Z,25.30
2018-08-09T06:23:37.100Z,25.30
2018-08-09T06:26:05.441Z,25.30
2018-08-09T06:28:33.810Z,25.30
2018-08-09T06:31:02.185Z,25.40
2018-08-09T06:33:30.644Z,25.50
2018-08-09T06:35:58.933Z,25.50
2018-08-09T06:38:27.277Z,25.50
2018-08-09T06:40:55.605Z,25.60
2018-08-09T06:43:24.109Z,25.50
2018-08-09T06:45:52.460Z,25.60
2018-08-09T06:48:20.785Z,25.60
2018-08-09T06:50:49.156Z,25.70
2018-08-09T06:53:17.464Z,25.70
2018-08-09T06:55:45.973Z,25.80
2018-08-09T06:58:14.312Z,25.70
2018-08-09T07:00:42.640Z,25.70
2018-08-09T07:03:11.157Z,25.90
2018-08-09T07:05:39.661Z,26.10
2018-08-09T07:08:08.049Z,26.20
2018-08-09T07:10:36.541Z,26.30
2018-08-09T07:13:05.030Z,26.40
2018-08-09T07:15:33.380Z,26.30
2018-08-09T07:18:01.784Z,26.50
2018-08-09T07:20:30.174Z,26.70
2018-08-09T07:22:58.489Z,27.30
2018-08-09T07:25:26.845Z,28.20
2018-08-09T07:27:55.184Z,28.80
2018-08-09T07:30:23.541Z,29.40
2018-08-09T07:32:51.910Z,30.10
2018-08-09T07:35:20.245Z,30.60
2018-08-09T07:37:48.633Z,30.30
2018-08-09T07:40:16.972Z,30.20
2018-08-09T07:42:45.360Z,30.50
2018-08-09T07:45:14.285Z,30.90
2018-08-09T07:47:42.688Z,31.40
2018-08-09T07:50:11.306Z,31.90
2018-08-09T07:52:39.786Z,32.30
2018-08-09T07:55:09.941Z,32.50
2018-08-09T07:57:38.821Z,32.90
2018-08-09T08:00:09.537Z,32.60
2018-08-09T08:02:38.078Z,32.30
2018-08-09T08:05:06.757Z,32.00
2018-08-09T08:07:35.250Z,31.80
2018-08-09T08:10:03.828Z,31.60
2018-08-09T08:12:32.185Z,31.30
2018-08-09T08:15:00.587Z,31.00
2018-08-09T08:17:28.906Z,30.80
2018-08-09T08:19:57.278Z,31.00
2018-08-09T08:22:25.640Z,31.10
2018-08-09T08:24:53.980Z,30.90
2018-08-09T08:27:22.321Z,30.50
2018-08-09T08:29:50.905Z,30.10
2018-08-09T08:32:19.262Z,29.90
2018-08-09T08:34:47.590Z,29.60
2018-08-09T08:37:15.945Z,29.60
2018-08-09T08:39:44.296Z,29.40
2018-08-09T08:42:12.812Z,29.20
2018-08-09T08:44:41.209Z,29.00
2018-08-09T08:47:09.602Z,29.00
2018-08-09T08:49:37.996Z,29.00
2018-08-09T08:52:06.361Z,28.90
2018-08-09T08:54:34.716Z,28.80
2018-08-09T08:57:03.306Z,28.80
2018-08-09T08:59:31.660Z,28.80
2018-08-09T09:01:59.981Z,28.80
2018-08-09T09:04:28.456Z,28.90
2018-08-09T09:06:56.710Z,29.00
2018-08-09T09:09:25.012Z,29.10
2018-08-09T09:11:53.424Z,29.20
2018-08-09T09:14:21.806Z,29.30
2018-08-09T09:16:50.166Z,29.40
2018-08-09T09:19:18.516Z,29.50
2018-08-09T09:21:47.116Z,29.60
2018-08-09T09:24:15.441Z,29.70
2018-08-09T09:26:43.789Z,29.80
2018-08-09T09:29:12.405Z,29.90
2018-08-09T09:31:40.845Z,30.00
2018-08-09T09:34:09.249Z,30.00
2018-08-09T09:36:37.721Z,30.00
2018-08-09T09:39:08.308Z,30.00
2018-08-09T09:41:36.645Z,30.00
2018-08-09T09:44:05.177Z,30.10
2018-08-09T09:46:33.529Z,30.30
2018-08-09T09:49:01.857Z,30.30
2018-08-09T09:51:30.480Z,30.40
2018-08-09T09:53:59.137Z,30.40
2018-08-09T09:56:27.456Z,30.40
2018-08-09T09:58:55.949Z,30.60
2018-08-09T10:01:29.601Z,30.90
2018-08-09T10:03:58.118Z,31.10
2018-08-09T10:06:26.469Z,31.00
2018-08-09T10:08:54.800Z,30.80
2018-08-09T10:11:23.164Z,30.90
2018-08-09T10:13:51.489Z,31.00
2018-08-09T10:16:19.825Z,31.00
2018-08-09T10:18:48.272Z,31.00
2018-08-09T10:21:16.589Z,31.10
2018-08-09T10:23:45.201Z,31.20
2018-08-09T10:26:13.557Z,31.30
2018-08-09T10:28:41.920Z,31.40
2018-08-09T10:31:10.650Z,31.50
2018-08-09T10:33:39.120Z,31.60
2018-08-09T10:36:07.474Z,31.80
2018-08-09T10:38:35.846Z,31.90
2018-08-09T10:41:04.230Z,31.80
2018-08-09T10:43:32.563Z,31.90
2018-08-09T10:46:01.122Z,32.00
2018-08-09T10:48:29.561Z,32.00
2018-08-09T10:50:57.905Z,32.10
2018-08-09T10:53:26.261Z,32.30
2018-08-09T10:55:54.624Z,32.40
2018-08-09T10:58:22.971Z,32.40
2018-08-09T11:00:51.448Z,32.40
2018-08-09T11:03:19.776Z,32.60
2018-08-09T11:05:48.102Z,32.50
2018-08-09T11:08:16.485Z,32.60
2018-08-09T11:10:44.836Z,32.50
2018-08-09T11:13:13.168Z,32.50
2018-08-09T11:15:41.516Z,32.50
2018-08-09T11:18:10.049Z,32.50
2018-08-09T11:20:38.397Z,32.60
2018-08-09T11:23:06.783Z,32.70
2018-08-09T11:25:35.153Z,32.60
2018-08-09T11:28:03.513Z,32.70
2018-08-09T11:30:32.065Z,32.80
2018-08-09T11:33:00.392Z,32.70
2018-08-09T11:35:28.717Z,32.70
2018-08-09T11:37:57.085Z,32.60
2018-08-09T11:40:25.418Z,32.80
2018-08-09T11:42:53.956Z,32.70
2018-08-09T11:45:22.262Z,32.90
2018-08-09T11:47:50.580Z,32.80
2018-08-09T11:50:18.936Z,32.80
2018-08-09T11:52:47.264Z,32.70
2018-08-09T11:55:15.769Z,32.70
2018-08-09T11:57:44.117Z,32.60
2018-08-09T12:00:12.471Z,32.60
2018-08-09T12:02:40.977Z,32.70
2018-08-09T12:05:09.404Z,32.60
2018-08-09T12:07:37.772Z,32.60
2018-08-09T12:10:06.169Z,32.60
2018-08-09T12:12:34.481Z,32.60
2018-08-09T12:15:03.168Z,32.60
2018-08-09T12:17:31.465Z,32.60
2018-08-09T12:19:59.823Z,32.60
2018-08-09T12:22:28.220Z,32.60
2018-08-09T12:24:56.612Z,32.50
2018-08-09T12:27:25.177Z,32.50
2018-08-09T12:29:53.566Z,32.60
2018-08-09T12:32:21.933Z,32.60
2018-08-09T12:34:50.549Z,32.60
2018-08-09T12:37:18.897Z,32.60
2018-08-09T12:39:47.287Z,32.60
2018-08-09T12:42:15.684Z,32.60
2018-08-09T12:44:44.105Z,32.60
2018-08-09T12:47:12.504Z,32.60
2018-08-09T12:49:40.945Z,32.60
2018-08-09T12:52:09.328Z,32.60
2018-08-09T12:54:37.785Z,32.60
2018-08-09T12:57:06.156Z,32.60
2018-08-09T12:59:34.533Z,32.50
2018-08-09T13:02:03.116Z,32.50
2018-08-09T13:04:31.453Z,32.50
2018-08-09T13:06:59.777Z,32.40
2018-08-09T13:09:28.328Z,32.40
2018-08-09T13:11:56.703Z,32.40
2018-08-09T13:14:25.074Z,32.40
2018-08-09T13:16:53.458Z,32.40
2018-08-09T13:19:21.821Z,32.40
2018-08-09T13:21:50.360Z,32.30
2018-08-09T13:24:18.737Z,31.80
2018-08-09T13:26:47.077Z,31.10
2018-08-09T13:29:15.510Z,30.40
2018-08-09T13:31:43.864Z,29.90
2018-08-09T13:34:12.316Z,29.40
2018-08-09T13:36:40.729Z,28.80
2018-08-09T13:39:11.772Z,28.50
2018-08-09T13:41:40.194Z,28.50
2018-08-09T13:44:08.669Z,28.30
2018-08-09T13:46:37.066Z,28.00
2018-08-09T13:49:05.704Z,27.80
2018-08-09T13:51:34.130Z,27.60
2018-08-09T13:54:02.666Z,27.40
2018-08-09T13:56:31.012Z,27.20
2018-08-09T13:58:59.329Z,27.20
2018-08-09T14:01:28.575Z,27.30
2018-08-09T14:03:56.995Z,27.30
2018-08-09T14:06:25.353Z,27.30
2018-08-09T14:08:53.780Z,27.30
2018-08-09T14:11:22.125Z,27.20
2018-08-09T14:13:50.456Z,26.90
2018-08-09T14:16:19.714Z,26.80
2018-08-09T14:18:48.059Z,26.60
2018-08-09T14:21:16.453Z,26.10
2018-08-09T14:23:44.984Z,25.90
2018-08-09T14:26:13.349Z,25.90
2018-08-09T14:28:41.736Z,25.60
2018-08-09T14:31:10.130Z,25.50
2018-08-09T14:33:38.500Z,25.50
2018-08-09T14:36:06.920Z,25.40
2018-08-09T14:38:35.319Z,25.40
2018-08-09T14:41:03.705Z,25.20
2018-08-09T14:43:32.125Z,25.00
2018-08-09T14:46:00.450Z,24.70
2018-08-09T14:48:28.817Z,24.80
2018-08-09T14:50:57.181Z,24.80
2018-08-09T14:53:25.508Z,24.90
2018-08-09T14:55:53.912Z,25.10
2018-08-09T14:58:22.281Z,25.10
2018-08-09T15:00:50.665Z,25.10
2018-08-09T15:03:19.024Z,25.30
2018-08-09T15:05:47.385Z,25.40
2018-08-09T15:08:15.753Z,25.60
2018-08-09T15:10:44.317Z,25.70
2018-08-09T15:13:12.677Z,25.50
2018-08-09T15:15:41.092Z,25.50
2018-08-09T15:18:09.425Z,25.50
2018-08-09T15:20:37.820Z,25.60
2018-08-09T15:23:06.166Z,25.60
2018-08-09T15:25:34.577Z,25.60
2018-08-09T15:28:02.950Z,25.60
2018-08-09T15:30:31.545Z,25.60
2018-08-09T15:32:59.885Z,25.60
2018-08-09T15:35:28.205Z,25.30
2018-08-09T15:37:56.654Z,25.30
2018-08-09T15:40:24.953Z,25.50
2018-08-09T15:42:53.293Z,25.30
2018-08-09T15:45:21.645Z,25.20
2018-08-09T15:47:50.063Z,25.20
2018-08-09T15:50:19.684Z,25.30
2018-08-09T15:52:48.042Z,25.40
2018-08-09T15:55:17.589Z,25.60
2018-08-09T15:57:46.112Z,25.90
2018-08-09T16:00:18.053Z,26.10
2018-08-09T16:02:46.662Z,26.30
2018-08-09T16:05:15.034Z,26.50
2018-08-09T16:07:43.605Z,26.50
2018-08-09T16:10:13.650Z,26.70
2018-08-09T16:12:42.048Z,26.70
2018-08-09T16:15:13.528Z,26.90
2018-08-09T16:17:42.070Z,27.00
2018-08-09T16:20:11.516Z,27.10
2018-08-09T16:22:40.262Z,27.10
2018-08-09T16:25:10.649Z,27.10
2018-08-09T16:27:39.109Z,27.00
2018-08-09T16:30:11.617Z,27.10
2018-08-09T16:32:40.328Z,27.20
2018-08-09T16:35:08.781Z,27.30
2018-08-09T16:37:37.473Z,27.20
2018-08-09T16:40:06.497Z,26.80
2018-08-09T16:42:34.883Z,26.90
2018-08-09T16:45:03.426Z,26.90
2018-08-09T16:47:32.025Z,26.90
2018-08-09T16:50:00.462Z,26.90
2018-08-09T16:52:28.838Z,26.90
2018-08-09T16:54:57.394Z,26.90
2018-08-09T16:57:25.773Z,26.80
2018-08-09T16:59:54.140Z,26.90
2018-08-09T17:02:22.521Z,26.80
2018-08-09T17:04:50.903Z,26.80
2018-08-09T17:07:19.505Z,26.80
2018-08-09T17:09:47.872Z,26.80
2018-08-09T17:12:16.205Z,26.80
2018-08-09T17:14:44.613Z,26.80
2018-08-09T17:17:12.979Z,26.80
2018-08-09T17:19:41.369Z,26.70
2018-08-09T17:22:09.801Z,26.70
2018-08-09T17:24:38.326Z,26.70
2018-08-09T17:27:06.754Z,26.50
2018-08-09T17:29:35.158Z,26.50
2018-08-09T17:32:03.498Z,26.50
2018-08-09T17:34:31.817Z,26.50
2018-08-09T17:37:00.597Z,26.50
2018-08-09T17:39:29.025Z,26.40
2018-08-09T17:41:57.433Z,26.40
2018-08-09T17:44:25.977Z,26.40
2018-08-09T17:46:54.326Z,26.40
2018-08-09T17:49:22.693Z,26.30
2018-08-09T17:51:51.053Z,26.20
2018-08-09T17:54:19.417Z,26.10
2018-08-09T17:56:47.741Z,26.20
2018-08-09T17:59:16.126Z,26.20
2018-08-09T18:01:44.488Z,26.10
2018-08-09T18:04:12.905Z,26.00
2018-08-09T18:06:41.324Z,26.00
2018-08-09T18:09:10.800Z,26.00
2018-08-09T18:11:39.235Z,26.00
2018-08-09T18:14:07.724Z,26.10
2018-08-09T18:16:36.362Z,26.00
2018-08-09T18:19:04.737Z,26.00
2018-08-09T18:21:33.124Z,26.00
2018-08-09T18:24:01.537Z,25.90
2018-08-09T18:26:30.045Z,25.90
2018-08-09T18:28:58.442Z,26.00
2018-08-09T18:31:26.805Z,25.90
2018-08-09T18:33:55.253Z,25.90
2018-08-09T18:36:23.620Z,25.90
2018-08-09T18:38:52.225Z,25.90
2018-08-09T18:41:20.584Z,25.90
2018-08-09T18:43:48.979Z,25.80
2018-08-09T18:46:17.373Z,25.80
2018-08-09T18:48:45.752Z,25.70
2018-08-09T18:51:14.113Z,25.60
2018-08-09T18:53:42.517Z,25.70
2018-08-09T18:56:11.269Z,25.50
2018-08-09T18:58:39.652Z,25.50
2018-08-09T19:01:08.563Z,25.50
2018-08-09T19:03:36.982Z,25.50
2018-08-09T19:06:05.652Z,25.50
2018-08-09T19:08:34.050Z,25.30
2018-08-09T19:11:02.430Z,25.30
2018-08-09T19:13:30.837Z,25.40
2018-08-09T19:15:59.969Z,25.20
2018-08-09T19:18:28.382Z,25.20
2018-08-09T19:20:56.799Z,25.20
2018-08-09T19:23:25.186Z,25.20
2018-08-09T19:25:53.553Z,25.20
2018-08-09T19:28:21.933Z,25.10
2018-08-09T19:30:50.299Z,25.10
2018-08-09T19:33:18.676Z,25.10
2018-08-09T19:35:47.050Z,25.10
2018-08-09T19:38:15.412Z,25.10
2018-08-09T19:40:43.845Z,25.10
2018-08-09T19:43:12.243Z,25.10
2018-08-09T19:45:40.619Z,25.10
2018-08-09T19:48:09.064Z,24.90
2018-08-09T19:50:37.457Z,24.90
2018-08-09T19:53:05.908Z,24.90
2018-08-09T19:55:34.283Z,25.00
2018-08-09T19:58:02.704Z,25.00
2018-08-09T20:00:31.441Z,24.90
2018-08-09T20:02:59.859Z,24.90
2018-08-09T20:05:28.247Z,24.90
2018-08-09T20:07:58.189Z,24.90
2018-08-09T20:10:26.594Z,24.90
2018-08-09T20:12:55.179Z,25.00
2018-08-09T20:15:24.468Z,24.90
2018-08-09T20:17:52.853Z,24.90
2018-08-09T20:20:22.791Z,24.90
2018-08-09T20:22:51.237Z,24.90
2018-08-09T20:25:19.640Z,24.90
2018-08-09T20:27:48.113Z,25.00
2018-08-09T20:30:17.470Z,24.90
2018-08-09T20:32:46.385Z,24.90
2018-08-09T20:35:18.146Z,24.90
2018-08-09T20:37:47.054Z,24.90
2018-08-09T20:40:57.152Z,24.90
2018-08-09T20:43:25.755Z,24.90
2018-08-09T20:45:54.132Z,24.90
2018-08-09T20:48:22.522Z,24.80
2018-08-09T20:50:50.911Z,24.90
2018-08-09T20:53:19.275Z,24.80
2018-08-09T20:55:47.801Z,24.80
2018-08-09T20:58:16.193Z,24.70
2018-08-09T21:00:44.582Z,24.80
2018-08-09T21:03:13.027Z,24.70
2018-08-09T21:05:41.390Z,24.70
2018-08-09T21:08:09.837Z,24.70
2018-08-09T21:10:38.269Z,24.60
2018-08-09T21:13:07.093Z,24.60
2018-08-09T21:15:35.499Z,24.60
2018-08-09T21:18:03.881Z,24.50
2018-08-09T21:20:32.204Z,24.60
2018-08-09T21:23:00.713Z,24.60
2018-08-09T21:25:29.080Z,24.40
2018-08-09T21:27:57.469Z,24.50
2018-08-09T21:30:25.857Z,24.60
2018-08-09T21:32:54.213Z,24.70
2018-08-09T21:35:22.610Z,24.80
2018-08-09T21:37:51.037Z,24.70
2018-08-09T21:40:19.421Z,24.70
2018-08-09T21:42:47.847Z,24.70
2018-08-09T21:45:17.553Z,24.70
2018-08-09T21:47:45.992Z,24.70
2018-08-09T21:50:16.264Z,24.60
2018-08-09T21:52:44.716Z,24.60
2018-08-09T21:55:13.755Z,24.60
2018-08-09T21:57:43.196Z,24.40
2018-08-09T22:00:22.607Z,24.50
2018-08-09T22:02:51.453Z,24.50
2018-08-09T22:06:24.502Z,24.50
2018-08-09T22:08:58.149Z,24.50
2018-08-09T22:11:31.923Z,24.40
2018-08-09T22:14:05.616Z,24.30
2018-08-09T22:17:42.832Z,24.20
2018-08-09T22:20:16.461Z,24.10
2018-08-09T22:22:44.832Z,24.10
2018-08-09T22:25:13.243Z,24.00
2018-08-09T22:27:41.605Z,23.90
2018-08-09T22:30:13.507Z,24.00
2018-08-09T22:32:41.874Z,24.00
2018-08-09T22:35:10.254Z,24.10
2018-08-09T22:37:38.648Z,24.10
2018-08-09T22:40:07.005Z,23.90
2018-08-09T22:42:35.385Z,23.80
2018-08-09T22:45:03.776Z,23.90
2018-08-09T22:47:32.174Z,23.90
2018-08-09T22:50:00.601Z,23.70
2018-08-09T22:52:28.959Z,23.70
2018-08-09T22:54:57.357Z,23.70
2018-08-09T22:57:25.778Z,23.50
2018-08-09T22:59:54.173Z,23.50
2018-08-09T23:02:22.518Z,23.40
2018-08-09T23:04:50.841Z,23.50
2018-08-09T23:07:19.220Z,23.40
2018-08-09T23:09:47.586Z,23.40
2018-08-09T23:12:16.113Z,23.30
2018-08-09T23:14:44.489Z,23.30
2018-08-09T23:17:12.889Z,23.10
2018-08-09T23:19:41.394Z,23.30
2018-08-09T23:22:09.777Z,23.30
2018-08-09T23:24:38.314Z,23.40
2018-08-09T23:27:06.720Z,23.30
2018-08-09T23:29:35.155Z,23.20
2018-08-09T23:32:03.577Z,23.30
2018-08-09T23:34:31.960Z,23.40
2018-08-09T23:37:00.310Z,23.30
2018-08-09T23:39:28.821Z,23.40
2018-08-09T23:41:57.192Z,23.30
2018-08-09T23:44:25.547Z,23.20
2018-08-09T23:46:53.925Z,23.20
2018-08-09T23:49:22.269Z,23.10
2018-08-09T23:51:50.634Z,23.10
2018-08-09T23:54:18.981Z,23.00
2018-08-09T23:56:47.348Z,23.10
2018-08-09T23:59:15.669Z,23.00
